Time;durP1;ratioP1;P1;durP2;ratioP2;P2;SDS_P1;SDS_P2;PMS_P1;PMS_P2;Temp;Humidity;BMP_temperature;BMP_pressure;BME280_temperature;BME280_humidity;BME280_pressure;Samples;Min_cycle;Max_cycle;Signal;HPM_P1;HPM_P2
2023/05/06 00:01:23;;;;;;;11.47;8.07;;;13.60;99.90;;;;;;4989998;28;20250;-79
2023/05/06 00:03:50;;;;;;;10.07;8.13;;;13.60;99.90;;;;;;4986906;28;20282;-79
2023/05/06 00:06:17;;;;;;;8.70;7.23;;;13.50;99.90;;;;;;4947769;28;20803;-78
2023/05/06 00:08:45;;;;;;;9.77;8.07;;;13.40;99.90;;;;;;4964416;28;20306;-78
2023/05/06 00:11:12;;;;;;;8.77;7.87;;;13.40;99.90;;;;;;4965203;28;20227;-80
2023/05/06 00:13:40;;;;;;;10.63;8.23;;;13.40;99.90;;;;;;4950947;28;20298;-80
2023/05/06 00:16:07;;;;;;;10.00;7.27;;;13.30;99.90;;;;;;4951386;28;20207;-82
2023/05/06 00:18:34;;;;;;;11.60;7.83;;;13.30;99.90;;;;;;4950303;28;20205;-81
2023/05/06 00:21:01;;;;;;;8.87;7.97;;;13.30;99.90;;;;;;4968194;28;20279;-81
2023/05/06 00:23:29;;;;;;;9.73;7.93;;;13.30;99.90;;;;;;4947172;28;20615;-81
2023/05/06 00:25:56;;;;;;;10.87;8.40;;;13.30;99.90;;;;;;4951078;28;20604;-81
2023/05/06 00:28:23;;;;;;;12.40;9.30;;;13.30;99.90;;;;;;4967778;28;20206;-81
2023/05/06 00:30:50;;;;;;;11.37;8.73;;;13.30;99.90;;;;;;4984544;28;20658;-80
2023/05/06 00:33:17;;;;;;;13.17;9.53;;;13.20;99.90;;;;;;4986382;28;20233;-84
2023/05/06 00:35:44;;;;;;;12.33;9.47;;;13.20;99.90;;;;;;4970345;28;20293;-83
2023/05/06 00:38:14;;;;;;;13.87;9.80;;;13.10;99.90;;;;;;4970186;28;20305;-83
2023/05/06 00:40:41;;;;;;;12.20;9.27;;;13.20;99.90;;;;;;4985021;28;20209;-82
2023/05/06 00:43:09;;;;;;;13.83;9.80;;;13.10;99.90;;;;;;4952234;28;20202;-82
2023/05/06 00:45:37;;;;;;;12.67;10.87;;;13.10;99.90;;;;;;4954987;28;20238;-82
2023/05/06 00:48:05;;;;;;;12.00;10.03;;;13.10;99.90;;;;;;4952843;28;20211;-82
2023/05/06 00:50:33;;;;;;;13.53;9.80;;;13.10;99.90;;;;;;4963033;28;20214;-82
2023/05/06 00:53:02;;;;;;;12.13;9.50;;;13.10;99.90;;;;;;4946072;28;20238;-81
2023/05/06 00:55:30;;;;;;;10.37;9.07;;;13.10;99.90;;;;;;4954039;28;20255;-81
2023/05/06 00:57:57;;;;;;;12.23;9.83;;;13.10;99.90;;;;;;4969924;28;20606;-81
2023/05/06 01:00:25;;;;;;;14.53;10.63;;;13.10;99.90;;;;;;4969863;28;20690;-82
2023/05/06 01:02:52;;;;;;;11.87;9.93;;;13.10;99.90;;;;;;4971227;28;20820;-82
2023/05/06 01:05:21;;;;;;;12.10;9.57;;;13.00;99.90;;;;;;4968970;28;20232;-83
2023/05/06 01:07:57;;;;;;;12.93;9.83;;;13.00;99.90;;;;;;4987071;28;20220;-82
2023/05/06 01:10:43;;;;;;;14.00;10.40;;;13.00;99.90;;;;;;4969938;28;20256;-82
2023/05/06 01:13:29;;;;;;;12.37;10.20;;;12.90;99.90;;;;;;4968724;28;20235;-82
2023/05/06 01:15:58;;;;;;;13.47;9.33;;;13.00;99.90;;;;;;4970904;28;20195;-82
2023/05/06 01:18:27;;;;;;;11.50;9.20;;;12.90;99.90;;;;;;4965902;28;20230;-80
2023/05/06 01:20:55;;;;;;;13.17;10.10;;;12.90;99.90;;;;;;4962502;28;20243;-81
2023/05/06 01:23:22;;;;;;;13.17;10.10;;;13.00;99.90;;;;;;4981111;28;20302;-81
2023/05/06 01:25:49;;;;;;;12.43;10.20;;;13.00;99.90;;;;;;4950820;28;20605;-81
2023/05/06 01:28:16;;;;;;;11.60;10.00;;;13.00;99.90;;;;;;4935778;28;20315;-81
2023/05/06 01:30:58;;;;;;;10.90;9.80;;;13.00;99.90;;;;;;4984010;28;20313;-81
2023/05/06 01:33:41;;;;;;;12.00;10.07;;;13.00;99.90;;;;;;4959297;28;20219;-81
2023/05/06 01:36:32;;;;;;;11.00;8.70;;;13.00;99.90;;;;;;4958292;28;20288;-81
2023/05/06 01:39:10;;;;;;;11.27;9.33;;;12.90;99.90;;;;;;4963001;28;20313;-81
2023/05/06 01:41:40;;;;;;;11.00;9.90;;;12.80;99.90;;;;;;4963194;28;20213;-84
2023/05/06 01:44:09;;;;;;;12.37;9.93;;;12.80;99.90;;;;;;4943667;28;20214;-83
2023/05/06 01:46:36;;;;;;;12.23;10.03;;;12.80;99.90;;;;;;4961140;28;20225;-81
2023/05/06 01:49:05;;;;;;;15.20;10.93;;;12.80;99.90;;;;;;4965416;28;20563;-81
2023/05/06 01:51:33;;;;;;;13.43;10.83;;;12.70;99.90;;;;;;4982874;28;20207;-81
2023/05/06 01:54:01;;;;;;;15.40;11.47;;;12.70;99.90;;;;;;4946456;28;20208;-81
2023/05/06 01:56:30;;;;;;;14.20;10.37;;;12.70;99.90;;;;;;4981699;28;20221;-82
2023/05/06 01:58:58;;;;;;;13.13;10.30;;;12.70;99.90;;;;;;4965155;28;20621;-84
2023/05/06 02:01:25;;;;;;;11.80;10.60;;;12.70;99.90;;;;;;4965540;28;20215;-83
2023/05/06 02:03:53;;;;;;;10.93;9.20;;;12.70;99.90;;;;;;4948944;28;20214;-81
2023/05/06 02:06:20;;;;;;;17.23;10.77;;;12.80;99.90;;;;;;4943353;28;20215;-82
2023/05/06 02:08:48;;;;;;;15.23;12.10;;;12.70;99.90;;;;;;4963874;28;20214;-82
2023/05/06 02:11:15;;;;;;;13.30;10.87;;;12.70;99.90;;;;;;4965729;28;20250;-82
2023/05/06 02:13:42;;;;;;;14.77;10.77;;;12.70;99.90;;;;;;4965194;28;20202;-81
2023/05/06 02:16:09;;;;;;;13.83;10.60;;;12.60;99.90;;;;;;4982757;28;20226;-82
2023/05/06 02:18:36;;;;;;;14.30;10.00;;;12.60;99.90;;;;;;4968452;28;20230;-81
2023/05/06 02:21:03;;;;;;;13.93;10.57;;;12.70;99.90;;;;;;4966249;28;20290;-82
2023/05/06 02:23:30;;;;;;;11.63;10.20;;;12.70;99.90;;;;;;4963779;28;20606;-81
2023/05/06 02:25:57;;;;;;;12.03;10.13;;;12.70;99.90;;;;;;4967241;28;20206;-82
2023/05/06 02:28:24;;;;;;;11.47;9.80;;;12.60;99.90;;;;;;4948328;28;20234;-81
2023/05/06 02:30:58;;;;;;;11.33;9.57;;;12.60;99.90;;;;;;4949208;28;20292;-83
2023/05/06 02:33:25;;;;;;;11.07;9.87;;;12.50;99.90;;;;;;4966291;28;20227;-82
2023/05/06 02:35:52;;;;;;;11.33;9.80;;;12.50;99.90;;;;;;4947700;28;20653;-81
2023/05/06 02:38:20;;;;;;;17.77;10.63;;;12.40;99.90;;;;;;4963535;28;20692;-81
2023/05/06 02:40:47;;;;;;;16.37;11.73;;;12.30;99.90;;;;;;4946875;28;21180;-81
2023/05/06 02:43:14;;;;;;;13.23;10.50;;;12.40;99.90;;;;;;4948202;28;20251;-82
2023/05/06 02:45:40;;;;;;;11.77;10.47;;;12.50;99.90;;;;;;4951908;28;20286;-81
2023/05/06 02:48:07;;;;;;;14.13;10.93;;;12.40;99.90;;;;;;4935259;28;20249;-82
2023/05/06 02:50:35;;;;;;;14.57;10.03;;;12.50;99.90;;;;;;4967579;28;20215;-83
2023/05/06 02:53:02;;;;;;;12.60;10.27;;;12.40;99.90;;;;;;4980689;28;20667;-84
2023/05/06 02:55:29;;;;;;;13.47;10.77;;;12.50;99.90;;;;;;4968666;28;20212;-83
2023/05/06 02:57:56;;;;;;;12.80;10.83;;;12.60;99.90;;;;;;4968729;28;20293;-82
2023/05/06 03:00:23;;;;;;;12.93;10.50;;;12.50;99.90;;;;;;4968781;28;21082;-82
2023/05/06 03:02:50;;;;;;;15.17;10.40;;;12.30;99.90;;;;;;4967729;28;20292;-81
2023/05/06 03:05:17;;;;;;;12.93;10.40;;;12.30;99.90;;;;;;4936971;28;20244;-82
2023/05/06 03:07:44;;;;;;;12.20;9.67;;;12.40;99.90;;;;;;4971262;28;20571;-81
2023/05/06 03:10:11;;;;;;;13.53;10.40;;;12.20;99.90;;;;;;4973903;28;20207;-81
2023/05/06 03:12:38;;;;;;;12.90;10.40;;;12.10;99.90;;;;;;4956844;28;20291;-81
2023/05/06 03:15:06;;;;;;;12.97;10.20;;;12.00;99.90;;;;;;4971087;28;20271;-82
2023/05/06 03:17:33;;;;;;;10.73;9.33;;;11.90;99.90;;;;;;4952558;28;20279;-81
2023/05/06 03:20:00;;;;;;;15.07;10.17;;;12.00;99.90;;;;;;4976009;28;20276;-81
2023/05/06 03:22:27;;;;;;;11.73;10.33;;;12.00;99.90;;;;;;4957872;28;20205;-81
2023/05/06 03:24:53;;;;;;;10.47;9.27;;;12.10;99.90;;;;;;4956205;28;20215;-81
2023/05/06 03:27:20;;;;;;;12.03;9.53;;;12.10;99.90;;;;;;4939932;28;20219;-81
2023/05/06 03:29:47;;;;;;;10.77;9.00;;;12.10;99.90;;;;;;4955220;28;20662;-81
2023/05/06 03:32:14;;;;;;;11.60;8.87;;;12.10;99.90;;;;;;4954600;28;20403;-81
2023/05/06 03:34:41;;;;;;;10.27;8.60;;;12.00;99.90;;;;;;4951123;28;20312;-81
2023/05/06 03:37:08;;;;;;;10.73;8.77;;;12.10;99.90;;;;;;4970994;28;20205;-81
2023/05/06 03:39:35;;;;;;;11.90;8.97;;;12.20;99.90;;;;;;4973884;28;20970;-82
2023/05/06 03:42:02;;;;;;;11.93;9.63;;;12.00;99.90;;;;;;4973204;28;20201;-82
2023/05/06 03:44:29;;;;;;;11.40;9.27;;;11.90;99.90;;;;;;4971185;28;20211;-81
2023/05/06 03:46:56;;;;;;;12.53;9.60;;;12.00;99.90;;;;;;4969845;28;20236;-81
2023/05/06 03:49:23;;;;;;;12.27;8.97;;;12.20;99.90;;;;;;4987938;28;22041;-82
2023/05/06 03:51:50;;;;;;;11.03;9.00;;;12.10;99.90;;;;;;4972985;28;20223;-82
2023/05/06 03:54:17;;;;;;;10.97;9.13;;;11.90;99.90;;;;;;4968236;28;20669;-81
2023/05/06 03:56:44;;;;;;;10.80;9.07;;;12.00;99.90;;;;;;4967949;28;20230;-82
2023/05/06 03:59:11;;;;;;;11.43;9.23;;;12.10;99.90;;;;;;4990813;28;20635;-82
2023/05/06 04:01:37;;;;;;;11.80;9.43;;;12.20;99.90;;;;;;4992746;28;20233;-82
2023/05/06 04:04:04;;;;;;;12.80;9.50;;;12.20;99.90;;;;;;4977234;28;20201;-82
2023/05/06 04:06:31;;;;;;;10.33;8.87;;;12.20;99.90;;;;;;4976943;28;20866;-83
2023/05/06 04:08:58;;;;;;;9.67;8.60;;;12.20;99.90;;;;;;4949653;28;20291;-83
2023/05/06 04:11:25;;;;;;;12.07;9.13;;;12.10;99.90;;;;;;4975267;28;20235;-83
2023/05/06 04:13:55;;;;;;;11.90;8.97;;;12.00;99.90;;;;;;4979284;28;20240;-83
2023/05/06 04:16:22;;;;;;;12.30;8.77;;;11.90;99.90;;;;;;4995300;28;20187;-83
2023/05/06 04:18:50;;;;;;;12.60;9.13;;;11.80;99.90;;;;;;4972265;28;20828;-82
2023/05/06 04:21:17;;;;;;;10.53;8.57;;;11.80;99.90;;;;;;4974068;28;20206;-83
2023/05/06 04:23:44;;;;;;;11.40;9.67;;;11.80;99.90;;;;;;4978424;28;20198;-82
2023/05/06 04:26:11;;;;;;;12.87;9.27;;;11.60;99.90;;;;;;4982638;28;20198;-82
2023/05/06 04:28:38;;;;;;;11.40;9.17;;;11.70;99.90;;;;;;4983787;28;20213;-82
2023/05/06 04:31:07;;;;;;;11.53;8.97;;;11.60;99.90;;;;;;4965516;28;20290;-82
2023/05/06 04:33:34;;;;;;;11.23;9.10;;;11.60;99.90;;;;;;4995823;28;20239;-82
2023/05/06 04:36:02;;;;;;;9.50;8.17;;;11.60;99.90;;;;;;4993205;28;20195;-83
2023/05/06 04:38:30;;;;;;;11.50;8.13;;;11.50;99.90;;;;;;4978341;28;20300;-84
2023/05/06 04:40:58;;;;;;;11.20;9.30;;;11.60;99.90;;;;;;4978792;28;20209;-83
2023/05/06 04:43:27;;;;;;;11.00;8.80;;;11.60;99.90;;;;;;4974111;28;20209;-83
2023/05/06 04:45:55;;;;;;;10.73;8.27;;;11.60;99.90;;;;;;4994983;28;20570;-82
2023/05/06 04:48:22;;;;;;;12.07;8.77;;;11.70;99.90;;;;;;4956282;28;20283;-82
2023/05/06 04:50:50;;;;;;;13.70;8.63;;;11.80;99.90;;;;;;4953828;28;20219;-82
2023/05/06 04:53:17;;;;;;;10.50;8.83;;;11.80;99.90;;;;;;4955227;28;20640;-82
2023/05/06 04:55:44;;;;;;;10.30;8.53;;;11.80;99.90;;;;;;4958052;28;20212;-82
2023/05/06 04:58:11;;;;;;;9.67;8.10;;;11.80;99.90;;;;;;4952763;28;20217;-81
2023/05/06 05:00:38;;;;;;;11.83;8.80;;;11.80;99.90;;;;;;4973562;28;20221;-82
2023/05/06 05:03:05;;;;;;;11.17;9.07;;;11.80;99.90;;;;;;4953779;28;20309;-82
2023/05/06 05:05:33;;;;;;;10.50;9.17;;;11.90;99.90;;;;;;4954603;28;20241;-82
2023/05/06 05:08:00;;;;;;;11.03;9.23;;;12.10;99.90;;;;;;4973335;28;20289;-82
2023/05/06 05:10:27;;;;;;;12.10;9.47;;;12.30;99.90;;;;;;4942112;28;20233;-82
2023/05/06 05:12:53;;;;;;;13.63;9.07;;;12.30;99.90;;;;;;4961596;28;21217;-82
2023/05/06 05:15:20;;;;;;;11.83;9.50;;;12.10;99.90;;;;;;4971837;28;22188;-82
2023/05/06 05:17:49;;;;;;;12.83;9.87;;;12.10;99.90;;;;;;4970609;28;20297;-82
2023/05/06 05:20:16;;;;;;;12.37;8.67;;;12.20;99.90;;;;;;4970077;28;20216;-82
2023/05/06 05:22:43;;;;;;;12.47;9.30;;;12.10;99.90;;;;;;4990064;28;20287;-82
2023/05/06 05:25:10;;;;;;;11.33;9.17;;;12.20;99.90;;;;;;4966610;28;20209;-84
2023/05/06 05:27:37;;;;;;;11.00;8.63;;;12.30;99.90;;;;;;4988444;28;21989;-82
2023/05/06 05:30:06;;;;;;;10.73;8.30;;;12.20;99.90;;;;;;4980884;28;20206;-83
2023/05/06 05:32:33;;;;;;;11.67;8.83;;;12.20;99.90;;;;;;4957960;28;20225;-80
2023/05/06 05:34:59;;;;;;;10.93;9.13;;;12.20;99.90;;;;;;4935199;28;20576;-82
2023/05/06 05:37:27;;;;;;;12.20;9.93;;;12.30;99.90;;;;;;4950392;28;20248;-81
2023/05/06 05:39:54;;;;;;;12.23;9.00;;;12.20;99.90;;;;;;4939284;28;20235;-80
2023/05/06 05:42:21;;;;;;;13.07;9.00;;;12.20;99.90;;;;;;4912004;28;20237;-80
2023/05/06 05:44:48;;;;;;;11.97;8.70;;;12.20;99.90;;;;;;4946581;28;20203;-80
2023/05/06 05:47:15;;;;;;;10.47;9.27;;;12.30;99.90;;;;;;4963322;28;20333;-80
2023/05/06 05:49:42;;;;;;;13.23;9.47;;;12.20;99.90;;;;;;4931978;28;20694;-82
2023/05/06 05:52:09;;;;;;;10.97;8.83;;;12.20;99.90;;;;;;4934825;28;20266;-81
2023/05/06 05:54:36;;;;;;;10.60;8.90;;;12.30;99.90;;;;;;4933592;28;20244;-82
2023/05/06 05:57:03;;;;;;;12.43;9.07;;;12.50;99.90;;;;;;4952030;28;20233;-81
2023/05/06 05:59:31;;;;;;;13.70;9.53;;;12.50;99.90;;;;;;4952756;28;20288;-80
2023/05/06 06:01:58;;;;;;;10.10;8.93;;;12.50;99.90;;;;;;4925265;28;20556;-80
2023/05/06 06:04:25;;;;;;;11.63;9.13;;;12.40;99.90;;;;;;4930275;28;20241;-80
2023/05/06 06:06:56;;;;;;;12.53;9.50;;;12.40;99.90;;;;;;4928498;28;20719;-81
2023/05/06 06:09:23;;;;;;;10.40;8.67;;;12.40;99.90;;;;;;4948639;28;20209;-81
2023/05/06 06:11:50;;;;;;;13.77;9.30;;;12.40;99.90;;;;;;4949820;28;20211;-81
2023/05/06 06:14:17;;;;;;;10.30;9.17;;;12.40;99.90;;;;;;4932036;28;20202;-80
2023/05/06 06:16:44;;;;;;;12.60;9.30;;;12.50;99.90;;;;;;4915823;28;20266;-80
2023/05/06 06:19:13;;;;;;;10.43;8.60;;;12.50;99.90;;;;;;4933645;28;20206;-80
2023/05/06 06:21:40;;;;;;;11.57;9.73;;;12.50;99.90;;;;;;4951005;28;20211;-79
2023/05/06 06:24:07;;;;;;;11.13;8.57;;;12.60;99.90;;;;;;4934469;28;20302;-79
2023/05/06 06:26:34;;;;;;;11.77;8.83;;;12.70;99.90;;;;;;4936560;28;20209;-80
2023/05/06 06:29:01;;;;;;;10.27;8.50;;;12.80;99.90;;;;;;4932612;28;20198;-79
2023/05/06 06:31:28;;;;;;;12.77;9.80;;;12.80;99.90;;;;;;4929895;28;20215;-79
2023/05/06 06:33:55;;;;;;;11.63;8.70;;;13.10;99.90;;;;;;4932937;28;20216;-79
2023/05/06 06:36:22;;;;;;;10.63;8.93;;;13.30;99.90;;;;;;4951118;28;20208;-81
2023/05/06 06:38:49;;;;;;;14.23;9.23;;;13.50;99.90;;;;;;4953699;28;20337;-79
2023/05/06 06:41:16;;;;;;;10.23;8.33;;;13.70;99.90;;;;;;4956333;28;20264;-79
2023/05/06 06:43:43;;;;;;;12.03;8.93;;;13.70;99.90;;;;;;4950762;28;20277;-79
2023/05/06 06:46:10;;;;;;;11.80;8.73;;;13.80;99.90;;;;;;4967682;28;20663;-78
2023/05/06 06:48:37;;;;;;;11.57;9.00;;;13.80;99.90;;;;;;4953624;28;20204;-79
2023/05/06 06:51:04;;;;;;;15.77;9.47;;;13.90;99.90;;;;;;4969531;28;20233;-78
2023/05/06 06:53:31;;;;;;;13.83;8.97;;;13.90;99.90;;;;;;4971974;28;20663;-83
2023/05/06 06:55:59;;;;;;;12.37;9.47;;;13.90;99.90;;;;;;4957719;28;20203;-83
2023/05/06 06:58:26;;;;;;;13.33;8.57;;;14.10;99.90;;;;;;4974325;28;20213;-83
2023/05/06 07:00:53;;;;;;;13.80;9.10;;;14.20;99.90;;;;;;4957058;28;20212;-78
2023/05/06 07:03:20;;;;;;;12.93;9.87;;;14.60;99.90;;;;;;4966725;28;20258;-80
2023/05/06 07:05:48;;;;;;;14.03;9.20;;;15.10;99.90;;;;;;4970560;28;20207;-82
2023/05/06 07:08:15;;;;;;;13.60;9.27;;;15.30;99.90;;;;;;4969546;28;20293;-79
2023/05/06 07:10:43;;;;;;;15.00;9.33;;;15.40;99.90;;;;;;4593612;28;10000155;-80
2023/05/06 07:13:09;;;;;;;15.47;9.93;;;15.40;99.90;;;;;;4940746;28;20313;-79
2023/05/06 07:15:36;;;;;;;14.03;9.63;;;15.40;99.90;;;;;;4943200;28;20203;-79
2023/05/06 07:18:03;;;;;;;11.53;8.97;;;15.40;99.90;;;;;;4949632;28;20299;-77
2023/05/06 07:20:30;;;;;;;15.13;10.93;;;15.40;99.90;;;;;;4968970;28;20219;-77
2023/05/06 07:22:57;;;;;;;17.33;10.43;;;15.10;99.90;;;;;;4969290;28;20282;-76
2023/05/06 07:25:26;;;;;;;15.33;10.40;;;15.00;99.90;;;;;;4953462;28;20210;-77
2023/05/06 07:27:53;;;;;;;17.67;10.90;;;15.30;99.90;;;;;;4953630;28;20199;-79
2023/05/06 07:30:20;;;;;;;19.63;10.60;;;15.40;99.90;;;;;;4969298;28;20297;-77
2023/05/06 07:32:49;;;;;;;15.67;11.10;;;15.60;99.90;;;;;;4945544;28;20247;-76
2023/05/06 07:35:16;;;;;;;16.80;10.53;;;15.70;99.90;;;;;;4949347;28;20314;-76
2023/05/06 07:37:47;;;;;;;18.27;10.40;;;15.60;99.90;;;;;;4945920;28;20740;-76
2023/05/06 07:40:14;;;;;;;17.00;11.13;;;15.60;99.90;;;;;;4962253;28;20291;-77
2023/05/06 07:42:41;;;;;;;15.63;10.53;;;15.40;99.90;;;;;;4952614;28;20229;-87
2023/05/06 07:45:09;;;;;;;20.37;11.00;;;15.50;99.90;;;;;;4956654;28;20271;-88
2023/05/06 07:47:36;;;;;;;15.93;10.10;;;15.60;99.90;;;;;;4972387;28;21142;-87
2023/05/06 07:50:05;;;;;;;17.30;10.97;;;15.50;99.90;;;;;;4954467;28;20200;-86
2023/05/06 07:52:32;;;;;;;21.20;12.37;;;15.70;99.90;;;;;;4956211;28;20325;-86
2023/05/06 07:54:59;;;;;;;22.17;13.17;;;16.10;99.90;;;;;;4958262;28;20551;-86
2023/05/06 07:57:26;;;;;;;17.10;11.60;;;16.10;99.90;;;;;;4973358;28;20631;-86
2023/05/06 07:59:53;;;;;;;18.70;11.13;;;16.50;99.90;;;;;;4956823;28;20234;-87
2023/05/06 08:02:20;;;;;;;17.00;11.30;;;16.60;99.90;;;;;;4957207;28;20200;-86
2023/05/06 08:04:47;;;;;;;18.90;11.90;;;16.90;1.00;;;;;;4955649;28;20271;-85
2023/05/06 08:07:18;;;;;;;18.63;12.27;;;17.00;1.00;;;;;;4970443;28;20204;-85
2023/05/06 08:09:45;;;;;;;16.73;11.40;;;17.20;1.00;;;;;;4957425;28;20201;-87
2023/05/06 08:12:12;;;;;;;20.70;11.93;;;17.10;1.00;;;;;;4959020;28;20241;-87
2023/05/06 08:14:39;;;;;;;17.57;11.63;;;17.10;1.00;;;;;;4956117;28;20217;-86
2023/05/06 08:17:06;;;;;;;22.70;12.70;;;17.20;99.90;;;;;;4940141;28;20554;-86
2023/05/06 08:19:33;;;;;;;16.67;11.50;;;17.30;42.20;;;;;;4957059;28;20205;-88
2023/05/06 08:22:00;;;;;;;20.40;12.40;;;17.40;1.00;;;;;;4973091;28;20210;-88
2023/05/06 08:24:27;;;;;;;20.50;11.90;;;17.40;1.00;;;;;;4955204;28;20270;-86
2023/05/06 08:26:54;;;;;;;17.97;11.77;;;17.70;1.00;;;;;;4991422;28;20543;-87
2023/05/06 08:29:21;;;;;;;20.77;12.07;;;17.60;1.00;;;;;;4938170;28;20220;-87
2023/05/06 08:31:48;;;;;;;19.80;12.73;;;17.50;1.00;;;;;;4940540;28;20292;-87
2023/05/06 08:34:17;;;;;;;21.10;13.70;;;17.80;1.00;;;;;;4935286;28;20644;-87
2023/05/06 08:36:44;;;;;;;18.17;12.77;;;18.10;1.00;;;;;;4975429;28;20209;-87
2023/05/06 08:39:13;;;;;;;18.30;11.97;;;18.40;1.00;;;;;;4956780;28;20652;-86
2023/05/06 08:41:43;;;;;;;19.40;12.77;;;18.10;99.90;;;;;;4972835;28;20296;-88
2023/05/06 08:44:16;;;;;;;21.80;12.93;;;18.50;1.00;;;;;;4969376;28;20869;-88
2023/05/06 08:46:47;;;;;;;19.43;13.00;;;18.60;1.00;;;;;;4967303;28;20233;-89
2023/05/06 08:49:15;;;;;;;19.07;12.70;;;18.80;1.00;;;;;;4992140;28;20247;-88
2023/05/06 08:51:43;;;;;;;20.10;13.80;;;18.90;1.00;;;;;;4967531;28;20202;-91
2023/05/06 08:54:11;;;;;;;21.40;13.27;;;18.50;1.00;;;;;;4949011;28;20535;-89
2023/05/06 08:56:42;;;;;;;18.50;11.43;;;18.60;1.00;;;;;;4950959;28;20297;-89
2023/05/06 08:59:10;;;;;;;16.73;9.73;;;18.60;1.00;;;;;;4988532;28;20575;-89
2023/05/06 09:01:37;;;;;;;20.07;11.27;;;19.00;99.90;;;;;;4950973;28;20277;-89
2023/05/06 09:04:06;;;;;;;16.90;11.07;;;19.60;97.20;;;;;;4949224;28;21785;-88
2023/05/06 09:06:33;;;;;;;13.57;9.40;;;19.80;1.00;;;;;;4968868;28;20261;-86
2023/05/06 09:09:00;;;;;;;11.07;8.13;;;20.00;1.00;;;;;;4944228;28;20205;-88
2023/05/06 09:11:28;;;;;;;12.53;9.10;;;20.10;1.00;;;;;;4953362;28;20221;-89
2023/05/06 09:14:12;;;;;;;14.23;10.37;;;20.20;1.00;;;;;;4952232;28;20309;-88
2023/05/06 09:16:42;;;;;;;11.03;8.10;;;20.00;1.00;;;;;;4960677;28;20202;-87
2023/05/06 09:19:10;;;;;;;13.80;9.13;;;20.30;1.00;;;;;;4968478;28;20585;-88
2023/05/06 09:21:42;;;;;;;15.50;9.03;;;19.50;1.00;;;;;;4954423;28;20250;-88
2023/05/06 09:24:10;;;;;;;15.07;9.20;;;19.90;1.00;;;;;;4967527;28;20249;-89
2023/05/06 09:26:39;;;;;;;12.57;8.90;;;20.30;1.00;;;;;;4968772;28;20210;-89
2023/05/06 09:29:06;;;;;;;14.63;9.03;;;20.30;1.00;;;;;;4969264;28;20213;-87
2023/05/06 09:31:40;;;;;;;15.70;10.43;;;20.50;1.00;;;;;;4966834;28;20209;-89
2023/05/06 09:34:08;;;;;;;14.30;9.80;;;20.60;1.00;;;;;;4964595;28;20239;-87
2023/05/06 09:36:35;;;;;;;10.63;7.87;;;20.20;1.00;;;;;;4980220;28;20194;-87
2023/05/06 09:39:03;;;;;;;13.40;7.83;;;20.40;1.00;;;;;;4964885;28;20238;-87
2023/05/06 09:41:31;;;;;;;11.67;7.83;;;20.50;1.00;;;;;;4947270;28;20215;-84
2023/05/06 09:43:58;;;;;;;14.63;8.83;;;20.50;1.00;;;;;;4942333;28;20206;-87
2023/05/06 09:46:29;;;;;;;11.63;7.90;;;20.80;1.00;;;;;;4953986;28;20222;-87
2023/05/06 09:48:57;;;;;;;11.13;8.03;;;20.90;1.00;;;;;;4947488;28;20278;-76
2023/05/06 09:51:26;;;;;;;13.57;8.43;;;20.90;1.00;;;;;;4932175;28;20537;-76
2023/05/06 09:53:55;;;;;;;13.23;8.93;;;21.00;1.00;;;;;;4953434;28;20246;-76
2023/05/06 09:56:23;;;;;;;12.73;8.50;;;20.60;1.00;;;;;;4944398;28;20362;-77
2023/05/06 09:58:51;;;;;;;14.10;8.33;;;20.40;1.00;;;;;;4954326;28;20265;-77
2023/05/06 10:01:19;;;;;;;15.67;9.50;;;20.50;1.00;;;;;;4944087;28;20238;-77
2023/05/06 10:04:07;;;;;;;11.43;8.13;;;20.70;1.00;;;;;;4944163;28;20625;-77
2023/05/06 10:06:38;;;;;;;13.33;9.43;;;20.80;1.00;;;;;;4969083;28;20662;-77
2023/05/06 10:09:07;;;;;;;11.27;7.80;;;20.60;1.00;;;;;;4959163;28;20214;-77
2023/05/06 10:11:35;;;;;;;13.40;8.03;;;20.00;1.00;;;;;;4961387;28;20202;-76
2023/05/06 10:14:03;;;;;;;12.07;7.73;;;19.90;1.00;;;;;;4954822;28;20270;-77
2023/05/06 10:16:34;;;;;;;11.93;7.20;;;20.00;1.00;;;;;;4952143;28;20876;-77
2023/05/06 10:19:03;;;;;;;8.90;6.90;;;20.20;1.00;;;;;;4946785;28;20292;-79
2023/05/06 10:21:34;;;;;;;10.07;6.77;;;20.60;1.00;;;;;;4946567;28;20225;-78
2023/05/06 10:24:10;;;;;;;7.67;5.37;;;20.80;1.00;;;;;;4954623;28;20204;-80
2023/05/06 10:26:39;;;;;;;11.83;5.90;;;20.70;1.00;;;;;;4961999;28;20281;-79
2023/05/06 10:29:08;;;;;;;7.60;5.47;;;20.70;1.00;;;;;;4970079;28;20214;-76
2023/05/06 10:31:43;;;;;;;9.53;5.30;;;20.80;1.00;;;;;;4963406;28;20219;-76
2023/05/06 10:34:10;;;;;;;6.37;5.33;;;20.90;1.00;;;;;;4942941;28;20229;-76
2023/05/06 10:36:41;;;;;;;5.67;4.57;;;20.80;99.90;;;;;;4954055;28;20617;-77
2023/05/06 10:39:09;;;;;;;7.13;4.27;;;20.60;99.90;;;;;;4964284;28;20320;-76
2023/05/06 10:41:36;;;;;;;6.13;4.00;;;21.00;1.00;;;;;;4967372;28;20210;-76
2023/05/06 10:44:04;;;;;;;6.83;5.27;;;20.90;99.90;;;;;;4970807;28;20610;-77
2023/05/06 10:46:51;;;;;;;7.50;4.53;;;21.00;99.90;;;;;;4968485;28;20240;-76
2023/05/06 10:49:19;;;;;;;7.33;5.03;;;20.90;99.90;;;;;;4958358;28;20400;-76
2023/05/06 10:51:47;;;;;;;6.90;4.90;;;20.90;99.90;;;;;;4957520;28;20305;-77
2023/05/06 10:54:17;;;;;;;7.50;5.07;;;20.90;99.90;;;;;;4969971;28;20258;-77
2023/05/06 10:56:47;;;;;;;6.90;4.77;;;21.00;99.90;;;;;;4983136;28;20657;-77
2023/05/06 10:59:15;;;;;;;5.33;4.00;;;20.90;99.90;;;;;;4967136;28;20207;-77
2023/05/06 11:01:43;;;;;;;5.57;3.90;;;21.00;99.90;;;;;;4968735;28;20559;-77
2023/05/06 11:04:17;;;;;;;5.07;3.53;;;20.80;99.90;;;;;;4965070;28;20268;-77
2023/05/06 11:06:46;;;;;;;5.73;4.20;;;21.10;99.90;;;;;;4979434;28;20217;-77
2023/05/06 11:09:19;;;;;;;3.73;2.40;;;20.90;99.90;;;;;;4970084;28;20206;-78
2023/05/06 11:12:02;;;;;;;4.53;2.73;;;20.90;99.90;;;;;;4966418;28;20215;-77
2023/05/06 11:14:37;;;;;;;4.30;2.80;;;20.60;99.90;;;;;;4966520;28;20236;-77
2023/05/06 11:17:27;;;;;;;3.63;2.37;;;20.50;99.90;;;;;;4984604;28;20224;-77
2023/05/06 11:20:20;;;;;;;4.53;2.33;;;20.40;99.90;;;;;;4965004;28;20209;-78
2023/05/06 11:22:48;;;;;;;4.87;2.63;;;20.40;99.90;;;;;;4967356;28;20206;-77
2023/05/06 11:25:38;;;;;;;4.43;2.57;;;20.40;99.90;;;;;;4962312;28;20595;-76
2023/05/06 11:28:12;;;;;;;5.57;2.70;;;20.60;99.90;;;;;;4967813;28;20352;-77
2023/05/06 11:30:41;;;;;;;4.67;2.53;;;21.00;99.90;;;;;;4966514;28;20300;-78
2023/05/06 11:33:18;;;;;;;4.73;3.00;;;21.00;99.90;;;;;;4964126;28;20815;-77
2023/05/06 11:35:45;;;;;;;4.57;2.77;;;21.20;99.90;;;;;;4962308;28;20690;-77
2023/05/06 11:38:12;;;;;;;4.67;2.67;;;20.80;99.90;;;;;;4970159;28;20256;-76
2023/05/06 11:40:40;;;;;;;5.90;3.00;;;20.70;99.90;;;;;;4964972;28;20246;-77
2023/05/06 11:43:15;;;;;;;6.07;2.47;;;20.80;99.90;;;;;;4965423;28;20313;-77
2023/05/06 11:45:44;;;;;;;3.00;2.33;;;20.90;99.90;;;;;;4979862;28;20212;-78
2023/05/06 11:48:12;;;;;;;5.03;2.50;;;21.10;99.90;;;;;;4945650;28;20198;-77
2023/05/06 11:50:49;;;;;;;5.67;2.17;;;21.30;99.90;;;;;;4958881;28;20953;-77
2023/05/06 11:53:18;;;;;;;2.03;1.70;;;21.30;99.90;;;;;;4963536;28;20546;-77
2023/05/06 11:55:46;;;;;;;3.40;1.90;;;21.40;99.90;;;;;;4970552;28;20213;-77
2023/05/06 11:58:18;;;;;;;4.27;1.93;;;21.20;99.90;;;;;;4988152;28;20265;-77
2023/05/06 12:01:03;;;;;;;3.00;1.63;;;21.10;99.90;;;;;;4952589;28;20217;-77
2023/05/06 12:03:32;;;;;;;2.00;1.53;;;21.00;99.90;;;;;;4948854;28;20628;-78
2023/05/06 12:06:00;;;;;;;3.33;1.90;;;21.30;99.90;;;;;;4966842;28;20256;-78
2023/05/06 12:08:32;;;;;;;2.63;1.70;;;21.30;99.90;;;;;;4951897;28;20202;-77
2023/05/06 12:11:05;;;;;;;4.10;1.50;;;21.30;99.90;;;;;;4983025;28;20226;-78
2023/05/06 12:13:35;;;;;;;2.13;1.23;;;21.30;99.90;;;;;;4963637;28;20262;-78
2023/05/06 12:16:07;;;;;;;2.60;1.50;;;21.40;99.90;;;;;;4951311;28;20267;-78
2023/05/06 12:18:35;;;;;;;2.10;1.43;;;21.60;99.90;;;;;;4962635;28;20210;-78
2023/05/06 12:21:02;;;;;;;2.83;1.70;;;21.30;99.90;;;;;;4979649;28;20541;-76
2023/05/06 12:23:29;;;;;;;3.87;1.50;;;21.30;99.90;;;;;;4946819;28;20226;-77
2023/05/06 12:26:14;;;;;;;3.17;1.63;;;21.60;99.90;;;;;;4949331;28;20709;-76
2023/05/06 12:28:42;;;;;;;2.33;1.53;;;21.70;99.90;;;;;;4933616;28;20198;-78
2023/05/06 12:31:19;;;;;;;3.30;1.57;;;21.80;99.90;;;;;;4935134;28;20666;-76
2023/05/06 12:33:50;;;;;;;2.47;1.70;;;21.50;99.90;;;;;;4964910;28;20222;-76
2023/05/06 12:36:31;;;;;;;3.97;1.23;;;20.90;99.90;;;;;;5026449;28;20623;-61
2023/05/06 12:39:00;;;;;;;5.40;1.67;;;20.90;99.90;;;;;;4997579;28;20246;-61
2023/05/06 12:41:46;;;;;;;2.10;1.20;;;21.00;99.90;;;;;;5012941;28;20205;-64
2023/05/06 12:44:36;;;;;;;3.07;1.50;;;21.30;99.90;;;;;;5012880;28;20244;-61
2023/05/06 12:47:17;;;;;;;3.67;1.50;;;21.40;99.90;;;;;;5015916;28;20215;-62